createdAt,value
2023-01-08T00:00:00.577Z,55.3
2023-01-08T00:01:09.208Z,55.3
2023-01-08T00:02:00.910Z,55.2
2023-01-08T00:03:00.733Z,55.1
2023-01-08T00:04:00.664Z,55.1
2023-01-08T00:05:00.444Z,55.1
2023-01-08T00:06:02.273Z,55.0
2023-01-08T00:07:00.595Z,55.0
2023-01-08T00:08:04.699Z,55.0
2023-01-08T00:09:00.591Z,55.1
2023-01-08T00:10:01.252Z,55.0
2023-01-08T00:11:00.581Z,54.9
2023-01-08T00:12:00.567Z,54.9
2023-01-08T00:13:01.046Z,54.9
2023-01-08T00:14:00.530Z,54.9
2023-01-08T00:15:00.640Z,54.9
2023-01-08T00:16:02.312Z,54.9
2023-01-08T00:17:00.605Z,54.8
2023-01-08T00:18:00.893Z,54.9
2023-01-08T00:19:00.721Z,54.9
2023-01-08T00:20:00.512Z,54.9
2023-01-08T00:21:00.877Z,55.0
2023-01-08T00:22:00.557Z,55.1
2023-01-08T00:23:00.500Z,55.1
2023-01-08T00:24:00.794Z,55.1
2023-01-08T00:25:00.482Z,55.1
2023-01-08T00:26:01.269Z,55.1
2023-01-08T00:27:00.485Z,55.0
2023-01-08T00:28:00.519Z,54.9
2023-01-08T00:29:00.526Z,55.0
2023-01-08T00:30:00.754Z,55.1
2023-01-08T00:31:03.850Z,55.1
2023-01-08T00:32:00.503Z,55.1
2023-01-08T00:33:00.523Z,55.0
2023-01-08T00:34:00.551Z,54.9
2023-01-08T00:35:00.714Z,54.9
2023-01-08T00:36:05.439Z,54.9
2023-01-08T00:37:00.586Z,54.8
2023-01-08T00:38:00.493Z,54.9
2023-01-08T00:39:00.491Z,54.7
2023-01-08T00:40:00.569Z,54.7
2023-01-08T00:41:00.521Z,54.7
2023-01-08T00:42:00.490Z,54.6
2023-01-08T00:43:00.965Z,54.6
2023-01-08T00:44:00.471Z,54.6
2023-01-08T00:45:00.612Z,54.6
2023-01-08T00:46:00.663Z,54.5
2023-01-08T00:47:00.500Z,54.5
2023-01-08T00:48:00.481Z,54.4
2023-01-08T00:49:00.567Z,54.5
2023-01-08T00:50:00.532Z,54.5
2023-01-08T00:51:00.976Z,54.4
2023-01-08T00:52:00.557Z,54.4
2023-01-08T00:53:00.509Z,54.4
2023-01-08T00:54:00.501Z,54.3
2023-01-08T00:55:00.485Z,54.5
2023-01-08T00:56:01.669Z,54.5
2023-01-08T00:57:00.949Z,54.2
2023-01-08T00:58:00.539Z,54.1
2023-01-08T00:59:00.529Z,54.2
2023-01-08T01:00:00.597Z,54.2
2023-01-08T01:01:00.974Z,54.2
2023-01-08T01:02:00.651Z,54.3
2023-01-08T01:03:00.638Z,54.3
2023-01-08T01:04:00.597Z,54.3
2023-01-08T01:05:00.520Z,54.4
2023-01-08T01:06:01.267Z,54.4
2023-01-08T01:07:00.519Z,54.5
2023-01-08T01:08:04.668Z,54.6
2023-01-08T01:09:00.543Z,54.4
2023-01-08T01:10:00.738Z,54.4
2023-01-08T01:11:04.860Z,54.3
2023-01-08T01:12:00.492Z,54.4
2023-01-08T01:13:00.550Z,54.4
2023-01-08T01:14:00.712Z,54.2
2023-01-08T01:15:00.458Z,54.3
2023-01-08T01:16:01.034Z,54.3
2023-01-08T01:17:00.542Z,54.4
2023-01-08T01:18:00.494Z,54.4
2023-01-08T01:19:00.925Z,54.6
2023-01-08T01:20:00.515Z,54.4
2023-01-08T01:21:00.522Z,54.5
2023-01-08T01:22:00.831Z,54.3
2023-01-08T01:23:00.556Z,54.2
2023-01-08T01:24:02.166Z,54.1
2023-01-08T01:25:00.714Z,54.0
2023-01-08T01:26:00.498Z,53.8
2023-01-08T01:27:00.500Z,53.7
2023-01-08T01:28:00.453Z,54.0
2023-01-08T01:29:00.748Z,53.6
2023-01-08T01:30:00.700Z,53.5
2023-01-08T01:31:00.829Z,53.6
2023-01-08T01:32:00.504Z,53.5
2023-01-08T01:33:00.502Z,53.2
2023-01-08T01:34:00.540Z,53.3
2023-01-08T01:35:00.574Z,53.3
2023-01-08T01:36:01.500Z,53.2
2023-01-08T01:37:00.473Z,52.9
2023-01-08T01:38:00.485Z,53.0
2023-01-08T01:39:00.443Z,53.0
2023-01-08T01:40:00.527Z,53.0
2023-01-08T01:41:00.593Z,52.8
2023-01-08T01:42:00.522Z,52.8
2023-01-08T01:43:00.482Z,52.7
2023-01-08T01:44:10.333Z,52.7
2023-01-08T01:45:00.828Z,52.6
2023-01-08T01:46:00.958Z,52.7
2023-01-08T01:47:05.155Z,52.5
2023-01-08T01:48:02.777Z,52.5
2023-01-08T01:49:03.982Z,52.5
2023-01-08T01:50:09.616Z,52.6
2023-01-08T01:51:00.560Z,52.7
2023-01-08T01:52:04.244Z,52.8
2023-01-08T01:53:02.371Z,52.8
2023-01-08T01:54:01.539Z,53.0
2023-01-08T01:55:00.515Z,52.9
2023-01-08T01:56:02.067Z,53.3
2023-01-08T01:57:00.631Z,53.4
2023-01-08T01:58:03.952Z,53.7
2023-01-08T01:59:00.836Z,54.1
2023-01-08T02:00:01.621Z,54.1
2023-01-08T02:01:03.119Z,54.2
2023-01-08T02:02:01.242Z,55.6
2023-01-08T02:03:01.012Z,54.9
2023-01-08T02:04:00.710Z,54.9
2023-01-08T02:05:01.014Z,54.7
2023-01-08T02:06:10.309Z,55.2
2023-01-08T02:07:10.331Z,55.2
2023-01-08T02:08:05.987Z,54.9
2023-01-08T02:09:10.678Z,54.7
2023-01-08T02:10:09.296Z,54.7
2023-01-08T02:11:10.300Z,54.8
2023-01-08T02:12:00.465Z,55.2
2023-01-08T02:13:03.091Z,55.0
2023-01-08T02:14:07.148Z,55.0
2023-01-08T02:15:10.449Z,55.0
2023-01-08T02:16:05.031Z,55.6
2023-01-08T02:17:03.283Z,55.2
2023-01-08T02:18:01.483Z,55.1
2023-01-08T02:19:06.781Z,55.0
2023-01-08T02:20:06.037Z,55.1
2023-01-08T02:21:01.696Z,55.0
2023-01-08T02:22:00.451Z,54.9
2023-01-08T02:23:00.448Z,54.9
2023-01-08T02:24:07.812Z,55.2
2023-01-08T02:25:06.264Z,55.3
2023-01-08T02:26:00.436Z,55.4
2023-01-08T02:27:01.965Z,55.6
2023-01-08T02:28:01.350Z,55.6
2023-01-08T02:29:10.330Z,55.7
2023-01-08T02:30:02.020Z,56.1
2023-01-08T02:31:00.601Z,56.3
2023-01-08T02:32:01.234Z,56.3
2023-01-08T02:33:00.542Z,56.4
2023-01-08T02:34:00.752Z,56.3
2023-01-08T02:35:00.462Z,56.1
2023-01-08T02:36:10.298Z,56.0
2023-01-08T02:37:00.932Z,56.1
2023-01-08T02:38:00.654Z,56.0
2023-01-08T02:39:10.322Z,56.1
2023-01-08T02:40:10.301Z,56.2
2023-01-08T02:41:04.145Z,56.1
2023-01-08T02:42:03.778Z,56.6
2023-01-08T02:43:03.874Z,56.3
2023-01-08T02:44:01.473Z,56.2
2023-01-08T02:45:05.918Z,56.1
2023-01-08T02:46:01.073Z,56.3
2023-01-08T02:47:01.887Z,56.3
2023-01-08T02:48:10.380Z,56.4
2023-01-08T02:49:03.319Z,56.4
2023-01-08T02:50:09.340Z,56.3
2023-01-08T02:51:01.492Z,56.4
2023-01-08T02:52:02.507Z,56.5
2023-01-08T02:53:07.887Z,56.9
2023-01-08T02:54:04.063Z,57.0
2023-01-08T02:55:01.611Z,56.9
2023-01-08T02:56:03.550Z,56.8
2023-01-08T02:57:06.537Z,56.7
2023-01-08T02:58:01.243Z,56.7
2023-01-08T02:59:02.358Z,56.5
2023-01-08T03:00:00.864Z,56.6
2023-01-08T03:01:02.749Z,56.5
2023-01-08T03:02:01.875Z,56.5
2023-01-08T03:03:06.512Z,56.2
2023-01-08T03:04:05.481Z,56.0
2023-01-08T03:05:06.369Z,55.9
2023-01-08T03:06:03.396Z,55.9
2023-01-08T03:07:01.308Z,55.9
2023-01-08T03:08:01.105Z,56.2
2023-01-08T03:09:00.788Z,56.2
2023-01-08T03:10:00.555Z,55.9
2023-01-08T03:11:05.662Z,55.8
2023-01-08T03:12:06.006Z,55.7
2023-01-08T03:13:03.698Z,55.6
2023-01-08T03:14:05.704Z,55.6
2023-01-08T03:15:05.721Z,55.4
2023-01-08T03:16:03.054Z,55.3
2023-01-08T03:17:05.324Z,55.2
2023-01-08T03:18:03.695Z,55.4
2023-01-08T03:19:04.590Z,55.2
2023-01-08T03:20:07.620Z,54.9
2023-01-08T03:21:02.549Z,54.8
2023-01-08T03:22:02.459Z,54.6
2023-01-08T03:23:02.613Z,54.5
2023-01-08T03:24:01.151Z,54.4
2023-01-08T03:25:01.639Z,54.6
2023-01-08T03:26:02.319Z,54.6
2023-01-08T03:27:03.356Z,54.3
2023-01-08T03:28:02.718Z,54.6
2023-01-08T03:29:01.848Z,54.4
2023-01-08T03:30:01.861Z,54.5
2023-01-08T03:31:01.816Z,54.5
2023-01-08T03:32:02.138Z,54.6
2023-01-08T03:33:01.366Z,54.3
2023-01-08T03:34:02.557Z,54.3
2023-01-08T03:35:01.512Z,54.8
2023-01-08T03:36:01.804Z,54.6
2023-01-08T03:37:02.445Z,54.7
2023-01-08T03:38:04.647Z,55.7
2023-01-08T03:39:04.875Z,56.9
2023-01-08T03:40:00.459Z,57.6
2023-01-08T03:41:03.443Z,58.5
2023-01-08T03:42:01.853Z,58.3
2023-01-08T03:43:00.555Z,58.5
2023-01-08T03:44:00.516Z,59.3
2023-01-08T03:45:01.214Z,60.1
2023-01-08T03:46:02.617Z,60.4
2023-01-08T03:47:01.528Z,59.9
2023-01-08T03:48:01.830Z,61.6
2023-01-08T03:49:01.961Z,61.5
2023-01-08T03:50:01.848Z,62.1
2023-01-08T03:51:00.519Z,62.8
2023-01-08T03:52:00.581Z,63.4
2023-01-08T03:53:01.104Z,64.3
2023-01-08T03:54:00.571Z,64.8
2023-01-08T03:55:00.478Z,64.8
2023-01-08T03:56:00.523Z,65.6
2023-01-08T03:57:00.573Z,65.2
2023-01-08T03:58:00.456Z,66.2
2023-01-08T03:59:00.471Z,66.9
2023-01-08T04:00:00.454Z,66.7
2023-01-08T04:01:00.492Z,67.0
2023-01-08T04:02:00.711Z,67.7
2023-01-08T04:03:00.479Z,67.4
2023-01-08T04:04:00.788Z,67.1
2023-01-08T04:05:00.477Z,67.5
2023-01-08T04:06:00.489Z,66.0
2023-01-08T04:07:00.473Z,65.9
2023-01-08T04:08:03.255Z,67.8
2023-01-08T04:09:00.848Z,67.1
2023-01-08T04:10:00.656Z,67.0
2023-01-08T04:11:00.463Z,68.2
2023-01-08T04:12:00.486Z,68.1
2023-01-08T04:13:00.466Z,68.2
2023-01-08T04:14:00.584Z,67.9
2023-01-08T04:15:00.814Z,66.6
2023-01-08T04:16:00.569Z,66.1
2023-01-08T04:17:00.441Z,65.6
2023-01-08T04:18:00.486Z,65.6
2023-01-08T04:19:00.485Z,65.5
2023-01-08T04:20:00.513Z,65.4
2023-01-08T04:21:00.549Z,65.4
2023-01-08T04:22:00.476Z,65.3
2023-01-08T04:23:00.474Z,65.4
2023-01-08T04:24:00.540Z,65.3
2023-01-08T04:25:00.470Z,65.3
2023-01-08T04:26:04.088Z,65.3
2023-01-08T04:27:00.451Z,65.2
2023-01-08T04:28:00.444Z,66.0
2023-01-08T04:29:02.106Z,65.8
2023-01-08T04:30:00.494Z,65.7
2023-01-08T04:31:04.389Z,65.6
2023-01-08T04:32:00.463Z,66.1
2023-01-08T04:33:00.445Z,65.5
2023-01-08T04:34:00.485Z,65.3
2023-01-08T04:35:00.482Z,65.2
2023-01-08T04:36:00.700Z,65.1
2023-01-08T04:37:00.745Z,64.9
2023-01-08T04:38:00.497Z,65.0
2023-01-08T04:39:00.493Z,64.8
2023-01-08T04:40:00.483Z,65.3
2023-01-08T04:41:01.304Z,64.8
2023-01-08T04:42:00.475Z,64.8
2023-01-08T04:43:00.477Z,65.2
2023-01-08T04:44:00.459Z,65.0
2023-01-08T04:45:00.466Z,64.7
2023-01-08T04:46:01.778Z,64.8
2023-01-08T04:47:00.518Z,64.7
2023-01-08T04:48:00.677Z,64.7
2023-01-08T04:49:00.499Z,64.8
2023-01-08T04:50:00.484Z,64.7
2023-01-08T04:51:01.246Z,65.1
2023-01-08T04:52:00.464Z,65.7
2023-01-08T04:53:00.468Z,65.2
2023-01-08T04:54:00.541Z,64.7
2023-01-08T04:55:00.515Z,64.7
2023-01-08T04:56:02.223Z,65.3
2023-01-08T04:57:00.459Z,65.2
2023-01-08T04:58:00.491Z,65.4
2023-01-08T04:59:00.632Z,65.5
2023-01-08T05:00:00.483Z,65.4
2023-01-08T05:01:00.484Z,65.0
2023-01-08T05:02:00.686Z,64.9
2023-01-08T05:03:00.591Z,64.7
2023-01-08T05:04:02.135Z,64.2
2023-01-08T05:05:00.574Z,64.3
2023-01-08T05:06:00.487Z,64.1
2023-01-08T05:07:00.514Z,64.0
2023-01-08T05:08:02.625Z,64.9
2023-01-08T05:09:00.513Z,64.4
2023-01-08T05:10:00.653Z,63.9
2023-01-08T05:11:00.986Z,64.5
2023-01-08T05:12:00.502Z,64.1
2023-01-08T05:13:00.586Z,63.8
2023-01-08T05:14:00.486Z,63.8
2023-01-08T05:15:00.492Z,63.5
2023-01-08T05:16:00.963Z,63.3
2023-01-08T05:17:00.476Z,63.4
2023-01-08T05:18:02.871Z,63.3
2023-01-08T05:19:00.520Z,63.1
2023-01-08T05:20:00.442Z,63.2
2023-01-08T05:21:01.384Z,63.2
2023-01-08T05:22:00.484Z,63.1
2023-01-08T05:23:00.890Z,63.1
2023-01-08T05:24:00.453Z,63.2
2023-01-08T05:25:00.539Z,63.4
2023-01-08T05:26:01.647Z,63.4
2023-01-08T05:27:00.493Z,63.1
2023-01-08T05:28:00.606Z,63.6
2023-01-08T05:29:00.692Z,63.6
2023-01-08T05:30:00.479Z,63.9
2023-01-08T05:31:00.703Z,65.0
2023-01-08T05:32:00.737Z,64.4
2023-01-08T05:33:00.467Z,65.2
2023-01-08T05:34:00.598Z,65.2
2023-01-08T05:35:00.486Z,65.8
2023-01-08T05:36:02.974Z,65.4
2023-01-08T05:37:00.478Z,65.3
2023-01-08T05:38:00.643Z,66.1
2023-01-08T05:39:00.479Z,66.3
2023-01-08T05:40:00.541Z,66.4
2023-01-08T05:41:00.530Z,66.7
2023-01-08T05:42:00.752Z,67.0
2023-01-08T05:43:00.797Z,66.2
2023-01-08T05:44:00.512Z,66.9
2023-01-08T05:45:01.156Z,67.2
2023-01-08T05:46:01.121Z,67.6
2023-01-08T05:47:00.483Z,67.3
2023-01-08T05:48:03.649Z,66.9
2023-01-08T05:49:00.492Z,66.8
2023-01-08T05:50:00.606Z,67.0
2023-01-08T05:51:01.229Z,66.9
2023-01-08T05:52:00.489Z,67.7
2023-01-08T05:53:00.706Z,67.6
2023-01-08T05:54:00.639Z,67.6
2023-01-08T05:55:00.798Z,68.2
2023-01-08T05:56:01.653Z,68.4
2023-01-08T05:57:00.469Z,68.1
2023-01-08T05:58:01.247Z,68.1
2023-01-08T05:59:00.498Z,68.2
2023-01-08T06:00:00.520Z,67.7
2023-01-08T06:01:02.332Z,68.6
2023-01-08T06:02:00.489Z,68.5
2023-01-08T06:03:00.584Z,68.5
2023-01-08T06:04:00.518Z,68.3
2023-01-08T06:05:00.812Z,67.7
2023-01-08T06:06:01.023Z,67.7
2023-01-08T06:07:00.473Z,67.8
2023-01-08T06:08:00.440Z,68.1
2023-01-08T06:09:00.565Z,68.0
2023-01-08T06:10:00.514Z,67.7
2023-01-08T06:11:01.249Z,68.0
2023-01-08T06:12:00.483Z,68.6
2023-01-08T06:13:00.485Z,68.4
2023-01-08T06:14:00.477Z,68.7
2023-01-08T06:15:00.505Z,69.1
2023-01-08T06:16:01.081Z,69.1
2023-01-08T06:17:00.630Z,68.8
2023-01-08T06:18:02.059Z,68.9
2023-01-08T06:19:00.473Z,69.2
2023-01-08T06:20:00.572Z,69.4
2023-01-08T06:21:00.959Z,68.9
2023-01-08T06:22:00.440Z,69.0
2023-01-08T06:23:00.491Z,68.9
2023-01-08T06:24:00.516Z,69.3
2023-01-08T06:25:00.649Z,68.9
2023-01-08T06:26:00.804Z,68.7
2023-01-08T06:27:00.581Z,68.5
2023-01-08T06:28:00.445Z,68.3
2023-01-08T06:29:00.539Z,68.2
2023-01-08T06:30:01.176Z,68.1
2023-01-08T06:31:00.837Z,67.8
2023-01-08T06:32:00.469Z,67.9
2023-01-08T06:33:00.595Z,67.6
2023-01-08T06:34:00.540Z,67.1
2023-01-08T06:35:00.496Z,66.9
2023-01-08T06:36:01.067Z,66.6
2023-01-08T06:37:00.500Z,66.5
2023-01-08T06:38:00.669Z,66.2
2023-01-08T06:39:00.458Z,65.9
2023-01-08T06:40:00.465Z,65.6
2023-01-08T06:41:04.147Z,65.5
2023-01-08T06:42:00.514Z,65.3
2023-01-08T06:43:01.121Z,64.9
2023-01-08T06:44:00.454Z,65.0
2023-01-08T06:45:00.456Z,64.7
2023-01-08T06:46:00.457Z,64.6
2023-01-08T06:47:00.463Z,64.6
2023-01-08T06:48:02.628Z,64.4
2023-01-08T06:49:00.527Z,64.3
2023-01-08T06:50:00.574Z,64.1
2023-01-08T06:51:01.082Z,64.2
2023-01-08T06:52:00.504Z,64.2
2023-01-08T06:53:00.524Z,64.1
2023-01-08T06:54:00.682Z,63.8
2023-01-08T06:55:00.488Z,63.8
2023-01-08T06:56:02.047Z,63.8
2023-01-08T06:57:00.519Z,63.7
2023-01-08T06:58:00.477Z,63.6
2023-01-08T06:59:00.466Z,63.6
2023-01-08T07:00:00.677Z,63.6
2023-01-08T07:01:00.502Z,63.4
2023-01-08T07:02:00.608Z,63.2
2023-01-08T07:03:00.681Z,63.2
2023-01-08T07:04:00.488Z,63.0
2023-01-08T07:05:00.451Z,63.0
2023-01-08T07:06:01.445Z,63.0
2023-01-08T07:07:00.472Z,63.2
2023-01-08T07:08:04.469Z,62.9
2023-01-08T07:09:00.559Z,62.9
2023-01-08T07:10:00.504Z,62.8
2023-01-08T07:11:01.235Z,62.8
2023-01-08T07:12:00.503Z,62.8
2023-01-08T07:13:00.460Z,62.7
2023-01-08T07:14:00.463Z,63.0
2023-01-08T07:15:00.802Z,62.8
2023-01-08T07:16:04.347Z,62.8
2023-01-08T07:17:00.520Z,62.7
2023-01-08T07:18:02.736Z,62.6
2023-01-08T07:19:00.491Z,62.8
2023-01-08T07:20:00.467Z,62.7
2023-01-08T07:21:01.231Z,62.7
2023-01-08T07:22:00.573Z,62.7
2023-01-08T07:23:01.203Z,62.7
2023-01-08T07:24:00.447Z,62.7
2023-01-08T07:25:00.510Z,62.7
2023-01-08T07:26:01.019Z,62.6
2023-01-08T07:27:00.493Z,62.5
2023-01-08T07:28:00.511Z,62.7
2023-01-08T07:29:00.527Z,62.6
2023-01-08T07:30:00.492Z,62.6
2023-01-08T07:31:02.176Z,62.8
2023-01-08T07:32:00.499Z,62.7
2023-01-08T07:33:00.904Z,62.7
2023-01-08T07:34:00.458Z,62.6
2023-01-08T07:35:00.450Z,62.6
2023-01-08T07:36:00.726Z,62.9
2023-01-08T07:37:00.465Z,63.1
2023-01-08T07:38:00.471Z,63.1
2023-01-08T07:39:00.602Z,63.5
2023-01-08T07:40:00.443Z,63.0
2023-01-08T07:41:00.481Z,62.8
2023-01-08T07:42:00.445Z,62.6
2023-01-08T07:43:01.428Z,62.7
2023-01-08T07:44:00.776Z,62.7
2023-01-08T07:45:00.503Z,62.9
2023-01-08T07:46:02.241Z,62.7
2023-01-08T07:47:00.491Z,62.8
2023-01-08T07:48:00.510Z,62.8
2023-01-08T07:49:00.522Z,62.8
2023-01-08T07:50:00.514Z,62.7
2023-01-08T07:51:01.279Z,62.8
2023-01-08T07:52:00.442Z,62.9
2023-01-08T07:53:01.094Z,62.8
2023-01-08T07:54:00.469Z,63.1
2023-01-08T07:55:00.668Z,63.3
2023-01-08T07:56:01.570Z,63.4
2023-01-08T07:57:00.485Z,63.4
2023-01-08T07:58:05.825Z,63.2
2023-01-08T07:59:00.469Z,63.1
2023-01-08T08:00:00.695Z,63.1
2023-01-08T08:01:00.992Z,63.1
2023-01-08T08:02:00.808Z,63.0
2023-01-08T08:03:02.421Z,63.1
2023-01-08T08:04:01.198Z,62.9
2023-01-08T08:05:00.450Z,62.9
2023-01-08T08:06:00.741Z,63.1
2023-01-08T08:07:00.454Z,63.1
2023-01-08T08:08:03.336Z,63.0
2023-01-08T08:09:00.485Z,62.9
2023-01-08T08:10:00.576Z,63.1
2023-01-08T08:11:00.572Z,63.1
2023-01-08T08:12:00.482Z,62.9
2023-01-08T08:13:00.517Z,62.8
2023-01-08T08:14:00.494Z,62.7
2023-01-08T08:15:00.505Z,62.8
2023-01-08T08:16:01.557Z,62.5
2023-01-08T08:17:00.678Z,62.5
2023-01-08T08:18:00.575Z,62.5
2023-01-08T08:19:00.785Z,62.3
2023-01-08T08:20:00.500Z,62.5
2023-01-08T08:21:00.497Z,62.3
2023-01-08T08:22:00.599Z,62.2
2023-01-08T08:23:01.374Z,62.1
2023-01-08T08:24:00.480Z,62.3
2023-01-08T08:25:00.469Z,62.0
2023-01-08T08:26:02.042Z,61.8
2023-01-08T08:27:00.468Z,61.9
2023-01-08T08:28:01.242Z,61.7
2023-01-08T08:29:00.496Z,61.8
2023-01-08T08:30:00.569Z,61.3
2023-01-08T08:31:00.565Z,61.2
2023-01-08T08:32:00.576Z,61.4
2023-01-08T08:33:01.747Z,61.3
2023-01-08T08:34:00.526Z,61.1
2023-01-08T08:35:00.603Z,61.1
2023-01-08T08:36:00.460Z,60.8
2023-01-08T08:37:00.452Z,60.8
2023-01-08T08:38:00.622Z,60.8
2023-01-08T08:39:01.170Z,60.9
2023-01-08T08:40:00.479Z,60.8
2023-01-08T08:41:00.447Z,60.8
2023-01-08T08:42:00.444Z,60.7
2023-01-08T08:43:01.854Z,60.9
2023-01-08T08:44:00.482Z,60.8
2023-01-08T08:45:00.496Z,60.9
2023-01-08T08:46:00.470Z,61.1
2023-01-08T08:47:00.677Z,60.8
2023-01-08T08:48:00.630Z,60.7
2023-01-08T08:49:00.660Z,60.4
2023-01-08T08:50:00.714Z,60.5
2023-01-08T08:51:00.448Z,60.5
2023-01-08T08:52:00.508Z,60.4
2023-01-08T08:53:01.008Z,60.5
2023-01-08T08:54:00.459Z,60.6
2023-01-08T08:55:00.575Z,60.6
2023-01-08T08:56:00.454Z,60.5
2023-01-08T08:57:00.532Z,60.7
2023-01-08T08:58:03.287Z,60.7
2023-01-08T08:59:00.514Z,60.6
2023-01-08T09:00:01.386Z,60.6
2023-01-08T09:01:01.501Z,60.4
2023-01-08T09:02:01.073Z,60.6
2023-01-08T09:03:00.656Z,60.4
2023-01-08T09:04:00.557Z,60.4
2023-01-08T09:05:00.462Z,60.2
2023-01-08T09:06:00.486Z,60.3
2023-01-08T09:07:00.719Z,60.2
2023-01-08T09:08:00.505Z,60.0
2023-01-08T09:09:00.449Z,60.0
2023-01-08T09:10:00.727Z,60.2
2023-01-08T09:11:01.843Z,59.8
2023-01-08T09:12:00.637Z,59.7
2023-01-08T09:13:00.500Z,59.8
2023-01-08T09:14:00.473Z,59.8
2023-01-08T09:15:00.496Z,59.7
2023-01-08T09:16:00.573Z,59.7
2023-01-08T09:17:00.455Z,59.8
2023-01-08T09:18:00.457Z,59.7
2023-01-08T09:19:00.508Z,59.7
2023-01-08T09:20:00.699Z,59.7
2023-01-08T09:21:04.349Z,59.6
2023-01-08T09:22:01.075Z,59.5
2023-01-08T09:23:01.016Z,59.6
2023-01-08T09:24:00.503Z,59.7
2023-01-08T09:25:00.547Z,59.3
2023-01-08T09:26:01.318Z,59.4
2023-01-08T09:27:00.460Z,59.4
2023-01-08T09:28:03.088Z,59.1
2023-01-08T09:29:00.486Z,59.0
2023-01-08T09:30:00.543Z,58.9
2023-01-08T09:31:01.457Z,58.9
2023-01-08T09:32:00.521Z,59.0
2023-01-08T09:33:02.753Z,59.3
2023-01-08T09:34:00.607Z,59.0
2023-01-08T09:35:00.509Z,59.2
2023-01-08T09:36:00.529Z,59.3
2023-01-08T09:37:00.905Z,59.2
2023-01-08T09:38:00.519Z,59.2
2023-01-08T09:39:00.470Z,58.9
2023-01-08T09:40:02.500Z,58.8
2023-01-08T09:41:04.019Z,58.9
2023-01-08T09:42:01.687Z,58.8
2023-01-08T09:43:01.056Z,58.4
2023-01-08T09:44:02.529Z,58.6
2023-01-08T09:45:01.120Z,58.6
2023-01-08T09:46:02.514Z,58.5
2023-01-08T09:47:01.373Z,58.2
2023-01-08T09:48:03.964Z,58.2
2023-01-08T09:49:03.417Z,57.9
2023-01-08T09:50:02.077Z,57.9
2023-01-08T09:51:00.868Z,58.0
2023-01-08T09:52:00.478Z,58.1
2023-01-08T09:53:00.671Z,58.4
2023-01-08T09:54:01.422Z,58.3
2023-01-08T09:55:00.529Z,58.3
2023-01-08T09:56:10.010Z,58.3
2023-01-08T09:57:00.531Z,58.0
2023-01-08T09:58:03.004Z,57.8
2023-01-08T09:59:02.430Z,57.2
2023-01-08T10:00:00.485Z,56.2
2023-01-08T10:01:01.831Z,55.7
2023-01-08T10:02:00.632Z,55.5
2023-01-08T10:03:00.685Z,55.3
2023-01-08T10:04:05.376Z,55.2
2023-01-08T10:05:00.541Z,55.5
2023-01-08T10:06:00.507Z,55.8
2023-01-08T10:07:10.268Z,55.8
2023-01-08T10:08:00.445Z,55.5
2023-01-08T10:09:00.490Z,55.5
2023-01-08T10:10:00.640Z,55.9
2023-01-08T10:11:00.619Z,55.9
2023-01-08T10:12:01.626Z,56.2
2023-01-08T10:13:00.620Z,56.3
2023-01-08T10:14:00.479Z,56.4
2023-01-08T10:15:02.454Z,56.4
2023-01-08T10:16:00.479Z,56.6
2023-01-08T10:17:03.883Z,56.7
2023-01-08T10:18:02.771Z,56.9
2023-01-08T10:19:01.882Z,56.7
2023-01-08T10:20:00.474Z,56.8
2023-01-08T10:21:00.481Z,56.8
2023-01-08T10:22:00.650Z,56.9
2023-01-08T10:23:10.547Z,56.8
2023-01-08T10:24:00.508Z,56.7
2023-01-08T10:25:09.635Z,56.8
2023-01-08T10:26:01.416Z,57.0
2023-01-08T10:27:10.333Z,57.0
2023-01-08T10:28:01.743Z,57.0
2023-01-08T10:29:10.479Z,56.7
2023-01-08T10:30:04.509Z,57.0
2023-01-08T10:31:07.051Z,57.0
2023-01-08T10:32:06.629Z,57.5
2023-01-08T10:33:03.157Z,57.6
2023-01-08T10:34:08.387Z,57.6
2023-01-08T10:35:05.118Z,57.6
2023-01-08T10:36:03.151Z,57.9
2023-01-08T10:37:00.463Z,58.2
2023-01-08T10:38:00.789Z,58.1
2023-01-08T10:39:01.488Z,58.6
2023-01-08T10:40:03.761Z,58.5
2023-01-08T10:41:02.474Z,59.5
2023-01-08T10:42:05.016Z,59.4
2023-01-08T10:43:10.340Z,59.4
2023-01-08T10:44:04.079Z,59.7
2023-01-08T10:45:02.648Z,60.0
2023-01-08T10:46:02.146Z,59.9
2023-01-08T10:47:00.577Z,60.0
2023-01-08T10:48:03.528Z,60.0
2023-01-08T10:49:01.685Z,60.5
2023-01-08T10:50:02.247Z,60.5
2023-01-08T10:51:06.909Z,60.9
2023-01-08T10:52:00.513Z,60.8
2023-01-08T10:53:02.054Z,60.7
2023-01-08T10:54:10.379Z,61.0
2023-01-08T10:55:10.358Z,60.8
2023-01-08T10:56:01.952Z,61.1
2023-01-08T10:57:02.527Z,61.5
2023-01-08T10:58:03.132Z,61.2
2023-01-08T10:59:00.483Z,61.6
2023-01-08T11:00:00.759Z,61.6
2023-01-08T11:01:08.527Z,61.5
2023-01-08T11:02:00.796Z,61.9
2023-01-08T11:03:01.644Z,62.0
2023-01-08T11:04:02.126Z,61.9
2023-01-08T11:05:01.020Z,61.7
2023-01-08T11:06:08.927Z,62.1
2023-01-08T11:07:01.834Z,62.1
2023-01-08T11:08:01.823Z,61.2
2023-01-08T11:09:03.826Z,61.2
2023-01-08T11:10:01.333Z,60.8
2023-01-08T11:18:10.316Z,60.0
2023-01-08T11:19:00.539Z,59.7
2023-01-08T11:20:10.302Z,59.5
2023-01-08T11:21:08.757Z,59.6
2023-01-08T11:22:03.092Z,59.7
2023-01-08T11:23:10.337Z,59.7
2023-01-08T11:24:03.411Z,59.6
2023-01-08T11:25:00.467Z,59.8
2023-01-08T11:26:05.349Z,60.3
2023-01-08T11:27:05.198Z,60.3
2023-01-08T11:28:03.314Z,60.6
2023-01-08T11:29:06.826Z,60.3
2023-01-08T11:30:05.328Z,60.2
2023-01-08T11:31:05.905Z,60.7
2023-01-08T11:32:03.781Z,60.7
2023-01-08T11:33:04.954Z,60.9
2023-01-08T11:34:07.139Z,60.8
2023-01-08T11:35:03.879Z,61.1
2023-01-08T11:36:05.211Z,60.9
2023-01-08T11:37:04.161Z,61.1
2023-01-08T11:38:01.185Z,61.1
2023-01-08T11:39:01.281Z,60.7
2023-01-08T11:40:00.676Z,60.9
2023-01-08T11:41:00.456Z,60.9
2023-01-08T11:42:08.429Z,61.1
2023-01-08T11:43:10.319Z,61.1
2023-01-08T11:44:07.895Z,61.3
2023-01-08T11:45:09.701Z,61.6
2023-01-08T11:46:00.542Z,61.6
2023-01-08T11:47:07.316Z,61.6
2023-01-08T11:48:10.326Z,61.4
2023-01-08T11:49:03.818Z,61.7
2023-01-08T11:50:10.329Z,62.1
2023-01-08T11:51:10.332Z,62.8
2023-01-08T11:52:07.849Z,62.7
2023-01-08T11:53:10.327Z,63.3
2023-01-08T11:54:00.424Z,63.4
2023-01-08T11:55:10.326Z,62.8
2023-01-08T11:56:00.513Z,62.8
2023-01-08T11:57:00.498Z,62.2
2023-01-08T11:58:09.268Z,62.1
2023-01-08T11:59:10.312Z,62.5
2023-01-08T12:00:03.808Z,62.4
2023-01-08T12:01:09.834Z,62.6
2023-01-08T12:02:07.964Z,62.3
2023-01-08T12:03:02.346Z,63.6
2023-01-08T12:04:10.299Z,64.2
2023-01-08T12:05:10.357Z,64.7
2023-01-08T12:06:08.991Z,65.0
2023-01-08T12:07:10.028Z,65.4
2023-01-08T12:08:00.495Z,65.6
2023-01-08T12:09:08.192Z,66.2
2023-01-08T12:10:07.282Z,67.1
2023-01-08T12:11:01.485Z,67.6
2023-01-08T12:12:06.881Z,68.3
2023-01-08T12:13:04.037Z,68.2
2023-01-08T12:14:03.860Z,69.0
2023-01-08T12:15:10.341Z,68.9
2023-01-08T12:16:06.217Z,69.0
2023-01-08T12:17:01.533Z,68.6
2023-01-08T12:18:07.961Z,68.6
2023-01-08T12:19:01.641Z,68.7
2023-01-08T12:20:00.609Z,68.9
2023-01-08T12:21:10.332Z,68.8
2023-01-08T12:22:10.312Z,68.7
2023-01-08T12:23:00.480Z,68.7
2023-01-08T12:24:01.492Z,69.0
2023-01-08T12:25:10.341Z,68.8
2023-01-08T12:26:01.550Z,69.4
2023-01-08T12:27:10.330Z,69.3
2023-01-08T12:28:10.341Z,69.6
2023-01-08T12:29:10.354Z,69.7
2023-01-08T12:30:10.371Z,69.7
2023-01-08T12:31:03.855Z,68.7
2023-01-08T12:32:07.141Z,70.0
2023-01-08T12:33:03.180Z,69.9
2023-01-08T12:34:05.444Z,69.9
2023-01-08T12:35:04.955Z,69.7
2023-01-08T12:36:02.779Z,69.8
2023-01-08T12:37:06.967Z,69.7
2023-01-08T12:38:04.156Z,68.7
2023-01-08T12:39:03.853Z,68.9
2023-01-08T12:40:10.348Z,68.9
2023-01-08T12:41:04.798Z,69.0
2023-01-08T12:42:10.308Z,69.0
2023-01-08T12:43:05.669Z,68.6
2023-01-08T12:44:01.740Z,68.8
2023-01-08T12:45:03.008Z,68.6
2023-01-08T12:46:01.531Z,68.4
2023-01-08T12:47:01.537Z,68.4
2023-01-08T12:48:05.065Z,68.2
2023-01-08T12:49:02.603Z,67.7
2023-01-08T12:50:10.333Z,67.7
2023-01-08T12:51:10.314Z,67.8
2023-01-08T12:52:03.916Z,67.9
2023-01-08T12:53:05.944Z,67.9
2023-01-08T12:54:10.393Z,67.5
2023-01-08T12:55:05.335Z,67.7
2023-01-08T12:56:05.783Z,67.8
2023-01-08T12:57:00.509Z,67.8
2023-01-08T12:58:09.651Z,68.0
2023-01-08T12:59:10.331Z,67.2
2023-01-08T13:00:05.686Z,67.5
2023-01-08T13:01:10.408Z,67.5
2023-01-08T13:02:10.471Z,66.9
2023-01-08T13:03:02.681Z,66.9
2023-01-08T13:04:01.238Z,67.1
2023-01-08T13:05:10.311Z,66.8
2023-01-08T13:06:10.314Z,66.6
2023-01-08T13:07:02.209Z,66.6
2023-01-08T13:08:03.879Z,66.7
2023-01-08T13:09:01.863Z,66.3
2023-01-08T13:10:02.051Z,66.5
2023-01-08T13:11:01.380Z,66.5
2023-01-08T13:12:00.623Z,66.7
2023-01-08T13:13:01.044Z,66.4
2023-01-08T13:14:02.735Z,66.1
2023-01-08T13:15:00.627Z,66.2
2023-01-08T13:16:10.472Z,66.2
2023-01-08T13:17:02.467Z,66.2
2023-01-08T13:18:10.311Z,66.1
2023-01-08T13:19:01.663Z,66.0
2023-01-08T13:20:01.753Z,66.1
2023-01-08T13:21:01.938Z,66.1
2023-01-08T13:22:00.541Z,66.1
2023-01-08T13:23:01.735Z,66.3
2023-01-08T13:24:01.684Z,66.3
2023-01-08T13:25:09.676Z,66.4